Time;durP1;ratioP1;P1;durP2;ratioP2;P2;SDS_P1;SDS_P2;PMS_P1;PMS_P2;Temp;Humidity;BMP_temperature;BMP_pressure;BME280_temperature;BME280_humidity;BME280_pressure;Samples;Min_cycle;Max_cycle;Signal;HPM_P1;HPM_P2
2022/05/21 00:00:41;;;;;;;18.45;10.15;;;11.40;99.90;;;;;;5048916;28;20187;-70
2022/05/21 00:03:09;;;;;;;25.50;11.27;;;11.30;99.90;;;;;;5049959;28;20494;-70
2022/05/21 00:05:36;;;;;;;14.18;9.77;;;11.30;99.90;;;;;;5048942;28;20525;-70
2022/05/21 00:08:06;;;;;;;24.92;10.50;;;11.30;99.90;;;;;;5050518;28;20064;-70
2022/05/21 00:10:32;;;;;;;13.50;9.95;;;11.30;99.90;;;;;;5040117;28;20069;-70
2022/05/21 00:13:01;;;;;;;20.98;9.32;;;11.30;99.90;;;;;;5028432;28;20558;-70
2022/05/21 00:15:30;;;;;;;13.98;9.65;;;11.30;99.90;;;;;;5030545;28;20490;-70
2022/05/21 00:17:55;;;;;;;18.42;10.35;;;11.30;99.90;;;;;;5042774;28;20090;-70
2022/05/21 00:23:28;;;;;;;16.52;10.80;;;11.30;99.90;;;;;;5043105;28;20057;-70
2022/05/21 00:26:00;;;;;;;23.20;10.77;;;11.30;99.90;;;;;;5048354;28;20410;-70
2022/05/21 00:28:26;;;;;;;16.50;11.02;;;11.20;99.90;;;;;;5049856;28;20092;-70
2022/05/21 00:30:52;;;;;;;21.40;10.93;;;11.20;99.90;;;;;;5049922;28;20047;-70
2022/05/21 00:33:18;;;;;;;21.02;11.07;;;11.20;99.90;;;;;;5032024;28;20045;-70
2022/05/21 00:35:44;;;;;;;13.07;11.07;;;11.20;99.90;;;;;;5047663;28;20043;-70
2022/05/21 00:38:10;;;;;;;16.98;11.45;;;11.20;99.90;;;;;;5049626;28;20452;-70
2022/05/21 00:40:36;;;;;;;22.38;15.27;;;11.10;99.90;;;;;;5049721;28;20528;-70
2022/05/21 00:43:03;;;;;;;21.65;14.88;;;11.10;99.90;;;;;;5050117;28;20113;-69
2022/05/21 00:45:30;;;;;;;19.05;13.43;;;11.20;99.90;;;;;;5048958;28;20065;-70
2022/05/21 00:47:56;;;;;;;23.17;15.30;;;11.10;99.90;;;;;;5048795;28;20524;-70
2022/05/21 00:50:27;;;;;;;24.25;16.55;;;11.10;99.90;;;;;;5049488;28;20148;-70
2022/05/21 00:52:53;;;;;;;33.70;19.35;;;11.10;99.90;;;;;;5049720;28;20091;-70
2022/05/21 00:55:26;;;;;;;28.80;20.85;;;11.10;99.90;;;;;;5048185;28;20056;-70
2022/05/21 01:00:51;;;;;;;31.10;21.67;;;11.10;99.90;;;;;;5034304;28;20057;-70
2022/05/21 01:03:17;;;;;;;32.60;24.35;;;11.00;99.90;;;;;;5049450;28;20048;-70
2022/05/21 01:05:46;;;;;;;41.17;24.48;;;11.10;99.90;;;;;;5049359;28;20098;-70
2022/05/21 01:08:12;;;;;;;47.53;28.95;;;11.10;99.90;;;;;;5046960;28;20949;-70
2022/05/21 01:10:43;;;;;;;38.88;29.58;;;11.10;99.90;;;;;;5049812;28;20040;-70
2022/05/21 01:13:14;;;;;;;35.22;26.08;;;11.10;99.90;;;;;;5048264;28;20406;-69
2022/05/21 01:15:44;;;;;;;46.85;30.73;;;11.10;99.90;;;;;;5048132;28;20048;-70
2022/05/21 01:18:10;;;;;;;45.40;30.63;;;11.10;99.90;;;;;;5048753;28;20045;-70
2022/05/21 01:20:47;;;;;;;52.95;32.75;;;11.10;99.90;;;;;;5046789;28;20049;-70
2022/05/21 01:23:14;;;;;;;49.47;34.53;;;11.10;99.90;;;;;;5033892;28;20053;-70
2022/05/21 01:25:42;;;;;;;52.15;34.88;;;11.10;99.90;;;;;;5047342;28;20581;-70
2022/05/21 01:28:13;;;;;;;54.38;36.03;;;11.10;99.90;;;;;;5047573;28;20115;-71
2022/05/21 01:30:59;;;;;;;56.03;36.08;;;11.10;99.90;;;;;;5048476;28;20041;-70
2022/05/21 01:33:31;;;;;;;55.72;39.15;;;11.20;99.90;;;;;;5046670;28;20051;-70
2022/05/21 01:35:58;;;;;;;62.15;39.63;;;11.20;99.90;;;;;;5048927;28;20055;-71
2022/05/21 01:38:26;;;;;;;65.65;42.75;;;11.20;99.90;;;;;;5048407;28;20049;-71
2022/05/21 01:40:52;;;;;;;65.97;40.22;;;11.30;99.90;;;;;;5048823;28;20131;-70
2022/05/21 01:46:03;;;;;;;53.30;38.03;;;11.30;99.90;;;;;;5027179;28;20054;-70
2022/05/21 01:48:30;;;;;;;58.28;38.60;;;11.30;99.90;;;;;;5034276;28;20067;-71
2022/05/21 01:50:56;;;;;;;62.87;38.03;;;11.40;99.90;;;;;;5048896;28;20045;-70
2022/05/21 01:53:23;;;;;;;66.55;39.80;;;11.40;99.90;;;;;;5046407;28;20298;-70
2022/05/21 01:55:50;;;;;;;64.50;40.50;;;11.50;99.90;;;;;;5048958;28;20527;-70
2022/05/21 01:58:16;;;;;;;63.45;42.28;;;11.50;99.90;;;;;;5032280;28;20041;-70
2022/05/21 02:00:43;;;;;;;69.25;42.80;;;11.50;99.90;;;;;;5028549;28;20049;-72
2022/05/21 02:03:11;;;;;;;59.63;41.38;;;11.50;99.90;;;;;;5040180;28;20088;-70
2022/05/21 02:05:38;;;;;;;62.50;41.38;;;11.60;99.90;;;;;;5047753;28;20056;-72
2022/05/21 02:08:04;;;;;;;62.22;42.78;;;11.60;99.90;;;;;;5046730;28;20383;-71
2022/05/21 02:10:31;;;;;;;65.05;44.70;;;11.60;99.90;;;;;;5048086;28;20033;-71
2022/05/21 02:12:56;;;;;;;62.22;43.72;;;11.60;99.90;;;;;;5048179;28;20045;-70
2022/05/21 02:15:23;;;;;;;65.88;46.17;;;11.60;99.90;;;;;;5046458;28;20487;-70
2022/05/21 02:17:48;;;;;;;77.65;45.45;;;11.60;99.90;;;;;;5046153;28;20490;-71
2022/05/21 02:20:14;;;;;;;70.63;46.33;;;11.70;99.90;;;;;;5045938;28;20049;-70
2022/05/21 02:22:40;;;;;;;66.70;47.72;;;11.70;99.90;;;;;;5045120;28;20391;-71
2022/05/21 02:25:07;;;;;;;75.82;48.72;;;11.70;99.90;;;;;;5046607;28;20127;-70
2022/05/21 02:27:33;;;;;;;74.40;49.80;;;11.70;99.90;;;;;;5046765;28;20059;-71
2022/05/21 02:29:59;;;;;;;67.50;45.15;;;11.70;99.90;;;;;;5045616;28;20052;-70
2022/05/21 02:32:25;;;;;;;81.85;53.42;;;11.80;99.90;;;;;;5045077;28;20743;-70
2022/05/21 02:34:53;;;;;;;66.47;46.08;;;11.80;99.90;;;;;;5048009;28;20056;-70
2022/05/21 02:40:04;;;;;;;74.18;51.50;;;11.80;99.90;;;;;;5045661;28;20410;-70
2022/05/21 02:42:48;;;;;;;72.15;49.90;;;11.80;99.90;;;;;;5046574;28;20048;-70
2022/05/21 02:45:25;;;;;;;65.40;47.53;;;11.90;99.90;;;;;;5046056;28;20052;-70
2022/05/21 02:47:52;;;;;;;73.72;49.63;;;11.90;99.90;;;;;;5046395;28;20053;-69
2022/05/21 02:50:22;;;;;;;81.63;52.65;;;11.90;99.90;;;;;;5046147;28;20055;-69
2022/05/21 02:52:48;;;;;;;78.22;52.83;;;11.90;99.90;;;;;;5032414;28;20061;-69
2022/05/21 02:55:15;;;;;;;69.65;48.45;;;12.00;99.90;;;;;;5028380;28;20436;-70
2022/05/21 02:57:42;;;;;;;69.60;48.70;;;12.00;99.90;;;;;;5029146;28;20053;-69
2022/05/21 03:00:12;;;;;;;71.65;48.10;;;12.00;99.90;;;;;;5031872;28;20132;-70
2022/05/21 03:02:37;;;;;;;77.18;51.33;;;12.00;99.90;;;;;;5047095;28;20041;-70
2022/05/21 03:05:04;;;;;;;76.90;51.60;;;12.00;99.90;;;;;;5050420;28;20045;-70
2022/05/21 03:07:30;;;;;;;78.40;52.20;;;12.10;99.90;;;;;;5051747;28;20167;-69
2022/05/21 03:12:40;;;;;;;79.78;52.50;;;12.00;99.90;;;;;;5051423;28;20391;-70
2022/05/21 03:15:06;;;;;;;68.60;48.05;;;12.10;99.90;;;;;;5049996;28;20103;-70
2022/05/21 03:17:32;;;;;;;67.95;45.38;;;12.10;99.90;;;;;;5051423;28;20099;-70
2022/05/21 03:19:57;;;;;;;69.72;46.60;;;12.10;99.90;;;;;;5048768;28;20068;-71
2022/05/21 03:22:23;;;;;;;79.90;52.45;;;12.20;99.90;;;;;;5049814;28;20045;-70
2022/05/21 03:24:49;;;;;;;73.55;45.92;;;12.20;99.90;;;;;;5050685;28;20044;-70
2022/05/21 03:27:14;;;;;;;70.00;48.08;;;12.20;99.90;;;;;;5049051;28;20052;-70
2022/05/21 03:29:40;;;;;;;67.00;42.38;;;12.20;99.90;;;;;;5051239;28;20140;-70
2022/05/21 03:32:07;;;;;;;73.38;48.05;;;12.20;99.90;;;;;;5055366;28;20573;-70
2022/05/21 03:34:34;;;;;;;63.65;41.85;;;12.20;99.90;;;;;;5061246;28;20049;-71
2022/05/21 03:37:00;;;;;;;62.25;42.30;;;12.20;99.90;;;;;;5050841;28;20049;-71
2022/05/21 03:39:26;;;;;;;56.78;41.13;;;12.20;99.90;;;;;;5050098;28;20689;-70
2022/05/21 03:41:51;;;;;;;57.10;40.80;;;12.20;99.90;;;;;;5049842;28;20163;-71
2022/05/21 03:44:17;;;;;;;57.28;38.85;;;12.30;99.90;;;;;;5050500;28;20052;-71
2022/05/21 03:46:42;;;;;;;65.50;41.85;;;12.30;99.90;;;;;;5032539;28;20140;-70
2022/05/21 03:49:08;;;;;;;62.63;39.70;;;12.30;99.90;;;;;;5048946;28;20040;-72
2022/05/21 03:51:34;;;;;;;65.75;42.55;;;12.30;99.90;;;;;;5049879;28;20414;-72
2022/05/21 03:54:01;;;;;;;56.17;38.28;;;12.30;99.90;;;;;;5046157;28;20048;-71
2022/05/21 03:56:26;;;;;;;67.68;39.88;;;12.30;99.90;;;;;;5050437;28;20059;-70
2022/05/21 03:58:52;;;;;;;70.40;42.90;;;12.40;99.90;;;;;;5048460;28;20036;-71
2022/05/21 04:01:17;;;;;;;61.47;42.50;;;12.30;99.90;;;;;;5050441;28;20049;-71
2022/05/21 04:03:43;;;;;;;61.17;40.90;;;12.40;99.90;;;;;;5051025;28;20049;-71
2022/05/21 04:06:11;;;;;;;55.72;38.17;;;12.40;99.90;;;;;;5048755;28;20124;-71
2022/05/21 04:08:37;;;;;;;56.50;40.77;;;12.40;99.90;;;;;;5032366;28;20052;-70
2022/05/21 04:11:03;;;;;;;67.03;37.55;;;12.40;99.90;;;;;;5050398;28;20279;-71
2022/05/21 04:13:29;;;;;;;64.68;40.20;;;12.40;99.90;;;;;;5050071;28;20057;-70
2022/05/21 04:15:55;;;;;;;55.92;36.38;;;12.40;99.90;;;;;;5049122;28;20414;-71
2022/05/21 04:18:24;;;;;;;52.08;33.10;;;12.50;99.90;;;;;;5048361;28;20413;-71
2022/05/21 04:20:50;;;;;;;58.00;35.60;;;12.50;99.90;;;;;;5047970;28;20710;-70
2022/05/21 04:23:15;;;;;;;47.35;32.67;;;12.50;99.90;;;;;;5043864;28;20045;-71
2022/05/21 04:25:42;;;;;;;51.33;31.13;;;12.50;99.90;;;;;;5030523;28;20053;-71
2022/05/21 04:28:08;;;;;;;50.42;32.20;;;12.50;99.90;;;;;;5037588;28;20056;-72
2022/05/21 04:30:35;;;;;;;61.30;29.52;;;12.60;99.90;;;;;;5042746;28;20075;-71
2022/05/21 04:33:01;;;;;;;50.60;29.63;;;12.60;99.90;;;;;;5047395;28;20052;-71
2022/05/21 04:38:12;;;;;;;46.15;23.00;;;12.70;99.90;;;;;;5047518;28;20060;-72
2022/05/21 04:40:38;;;;;;;31.92;22.33;;;12.70;99.90;;;;;;5049562;28;20059;-72
2022/05/21 04:43:03;;;;;;;40.88;22.88;;;12.70;99.90;;;;;;5050071;28;20037;-71
2022/05/21 04:45:29;;;;;;;41.35;19.83;;;12.70;99.90;;;;;;5049103;28;20086;-71
2022/05/21 04:47:56;;;;;;;41.70;20.20;;;12.70;99.90;;;;;;5048773;28;20055;-72
2022/05/21 04:50:21;;;;;;;39.58;20.17;;;12.80;99.90;;;;;;5048796;28;20041;-72
2022/05/21 04:52:47;;;;;;;31.88;17.48;;;12.80;99.90;;;;;;5040703;28;20056;-73
2022/05/21 04:55:12;;;;;;;32.85;15.75;;;12.80;99.90;;;;;;5047974;28;20041;-72
2022/05/21 04:57:38;;;;;;;38.28;17.15;;;12.80;99.90;;;;;;5049230;28;20056;-71
2022/05/21 05:00:06;;;;;;;36.28;15.82;;;12.80;99.90;;;;;;5044963;28;20096;-71
2022/05/21 05:02:32;;;;;;;33.88;16.75;;;12.80;99.90;;;;;;5035377;28;20104;-71
2022/05/21 05:04:58;;;;;;;39.83;15.45;;;12.80;99.90;;;;;;5029903;28;20049;-71
2022/05/21 05:07:24;;;;;;;29.92;14.57;;;12.80;99.90;;;;;;5035704;28;20056;-71
2022/05/21 05:09:50;;;;;;;36.63;13.27;;;12.90;99.90;;;;;;5038930;28;20419;-71
2022/05/21 05:12:16;;;;;;;26.65;12.50;;;12.90;99.90;;;;;;5029269;28;20049;-71
2022/05/21 05:14:42;;;;;;;29.05;12.10;;;13.00;99.90;;;;;;5032565;28;20509;-71
2022/05/21 05:17:12;;;;;;;31.73;12.52;;;13.00;99.90;;;;;;5047626;28;20084;-71
2022/05/21 05:19:38;;;;;;;31.13;11.63;;;13.00;99.90;;;;;;5047940;28;20057;-71
2022/05/21 05:22:04;;;;;;;32.35;11.25;;;13.00;99.90;;;;;;5048386;28;20502;-72
2022/05/21 05:24:30;;;;;;;23.67;10.55;;;13.10;99.90;;;;;;5041552;28;20064;-72
2022/05/21 05:26:56;;;;;;;21.25;10.43;;;13.20;99.90;;;;;;5047566;28;20037;-72
2022/05/21 05:29:21;;;;;;;25.35;12.13;;;13.20;99.90;;;;;;5049395;28;20068;-72
2022/05/21 05:31:47;;;;;;;41.40;11.93;;;13.20;99.90;;;;;;5046497;28;20053;-72
2022/05/21 05:34:13;;;;;;;22.05;10.23;;;13.30;99.90;;;;;;5048161;28;20413;-73
2022/05/21 05:36:39;;;;;;;24.55;10.18;;;13.30;99.90;;;;;;5049090;28;20048;-72
2022/05/21 05:39:04;;;;;;;24.52;9.98;;;13.30;99.90;;;;;;5048345;28;20064;-72
2022/05/21 05:41:30;;;;;;;23.67;10.27;;;13.30;99.90;;;;;;5046939;28;20131;-72
2022/05/21 05:43:57;;;;;;;22.88;10.13;;;13.40;99.90;;;;;;5045571;28;20071;-73
2022/05/21 05:46:23;;;;;;;26.50;10.77;;;13.50;99.90;;;;;;5047557;28;20041;-73
2022/05/21 05:48:49;;;;;;;28.52;10.27;;;13.50;99.90;;;;;;5048192;28;20041;-73
2022/05/21 05:51:19;;;;;;;20.35;9.02;;;13.60;99.90;;;;;;5048960;28;20099;-73
2022/05/21 05:53:46;;;;;;;20.13;8.90;;;13.60;99.90;;;;;;5047219;28;20122;-72
2022/05/21 05:56:12;;;;;;;28.47;8.87;;;13.60;99.90;;;;;;5047824;28;20052;-72
2022/05/21 06:01:23;;;;;;;19.98;8.57;;;13.60;99.90;;;;;;5047480;28;20096;-72
2022/05/21 06:03:49;;;;;;;24.02;8.13;;;13.70;99.90;;;;;;5047664;28;20053;-72
2022/05/21 06:06:16;;;;;;;24.92;9.35;;;13.70;99.90;;;;;;5041605;28;20052;-72
2022/05/21 06:08:46;;;;;;;20.33;8.80;;;13.70;99.90;;;;;;5046989;28;20132;-73
2022/05/21 06:11:12;;;;;;;19.75;8.30;;;13.70;99.90;;;;;;5028387;28;20057;-69
2022/05/21 06:13:38;;;;;;;26.88;8.82;;;13.70;99.90;;;;;;5029662;28;20156;-70
2022/05/21 06:16:04;;;;;;;24.80;8.18;;;13.80;99.90;;;;;;5047397;28;20729;-69
2022/05/21 06:18:30;;;;;;;20.80;8.15;;;13.80;99.90;;;;;;5047780;28;20056;-69
2022/05/21 06:21:04;;;;;;;14.23;7.45;;;13.80;99.90;;;;;;5048193;28;20715;-69
2022/05/21 06:23:34;;;;;;;23.05;8.80;;;13.80;99.90;;;;;;5045272;28;20052;-69
2022/05/21 06:26:00;;;;;;;23.48;9.77;;;13.80;99.90;;;;;;5041924;28;20130;-68
2022/05/21 06:28:28;;;;;;;14.90;7.30;;;13.90;99.90;;;;;;5046735;28;20045;-69
2022/05/21 06:30:53;;;;;;;15.95;7.75;;;13.80;99.90;;;;;;5049722;28;20091;-68
2022/05/21 06:33:28;;;;;;;22.17;8.77;;;13.90;99.90;;;;;;5054606;28;20041;-68
2022/05/21 06:36:10;;;;;;;32.45;8.52;;;13.90;99.90;;;;;;5042485;28;20052;-68
2022/05/21 06:38:36;;;;;;;17.30;8.70;;;13.90;99.90;;;;;;5047497;28;20044;-68
2022/05/21 06:41:03;;;;;;;22.48;8.70;;;13.90;99.90;;;;;;5047969;28;20051;-68
2022/05/21 06:43:28;;;;;;;21.83;8.48;;;13.90;99.90;;;;;;5046103;28;20554;-68
2022/05/21 06:45:54;;;;;;;17.95;8.32;;;14.10;99.90;;;;;;5047787;28;20073;-68
2022/05/21 06:48:20;;;;;;;25.30;9.30;;;14.20;99.90;;;;;;5046415;28;20043;-68
2022/05/21 06:50:47;;;;;;;22.63;8.05;;;14.30;99.90;;;;;;5046967;28;20548;-67
2022/05/21 06:53:12;;;;;;;22.73;7.72;;;14.40;99.90;;;;;;5046414;28;20049;-68
2022/05/21 06:55:39;;;;;;;20.77;8.35;;;14.30;99.90;;;;;;5034903;28;20033;-67
2022/05/21 06:58:05;;;;;;;35.03;8.98;;;14.30;99.90;;;;;;5036535;28;20052;-67
2022/05/21 07:00:32;;;;;;;32.78;8.90;;;14.20;99.90;;;;;;5039174;28;20049;-67
2022/05/21 07:02:59;;;;;;;18.08;8.70;;;14.20;99.90;;;;;;5043870;28;20037;-67
2022/05/21 07:08:22;;;;;;;21.65;8.40;;;14.20;99.90;;;;;;5047613;28;20049;-68
2022/05/21 07:10:48;;;;;;;26.90;8.02;;;14.50;99.90;;;;;;5041703;28;20065;-67
2022/05/21 07:13:15;;;;;;;23.40;7.10;;;14.60;99.90;;;;;;5046738;28;20045;-67
2022/05/21 07:15:41;;;;;;;17.95;9.00;;;14.60;99.90;;;;;;5047637;28;20041;-67
2022/05/21 07:18:07;;;;;;;15.23;7.18;;;14.50;99.90;;;;;;5047365;28;20394;-67
2022/05/21 07:20:33;;;;;;;17.70;7.65;;;14.50;99.90;;;;;;5047817;28;20119;-67
2022/05/21 07:23:00;;;;;;;26.55;9.00;;;14.50;99.90;;;;;;5047637;28;20041;-67
2022/05/21 07:25:30;;;;;;;16.90;7.25;;;14.80;99.90;;;;;;5047229;28;20044;-67
2022/05/21 07:27:56;;;;;;;24.95;8.10;;;15.20;99.90;;;;;;5046294;28;20052;-68
2022/05/21 07:30:22;;;;;;;13.55;7.03;;;15.50;99.90;;;;;;5035013;28;20588;-68
2022/05/21 07:32:50;;;;;;;13.20;6.30;;;15.90;99.90;;;;;;5038617;28;20080;-68
2022/05/21 07:35:18;;;;;;;21.15;6.50;;;16.20;99.90;;;;;;5027464;28;20045;-69
2022/05/21 07:37:44;;;;;;;17.10;6.57;;;16.60;99.90;;;;;;5027322;28;20076;-68
2022/05/21 07:40:11;;;;;;;23.05;7.18;;;16.80;99.90;;;;;;5027650;28;20038;-69
2022/05/21 07:42:37;;;;;;;10.10;5.43;;;17.10;99.90;;;;;;5038854;28;20047;-69
2022/05/21 07:45:05;;;;;;;18.88;6.22;;;17.00;99.90;;;;;;5050770;28;20045;-69
2022/05/21 07:47:31;;;;;;;11.40;6.78;;;17.00;99.90;;;;;;5050168;28;20052;-69
2022/05/21 07:49:57;;;;;;;14.98;5.55;;;16.90;99.90;;;;;;5047634;28;20544;-69
2022/05/21 07:52:27;;;;;;;17.75;5.43;;;16.70;99.90;;;;;;5050736;28;20501;-69
2022/05/21 07:54:54;;;;;;;11.38;5.13;;;16.70;99.90;;;;;;5050499;28;20049;-69
2022/05/21 07:57:19;;;;;;;8.57;4.78;;;16.90;99.90;;;;;;5049393;28;20041;-69
2022/05/21 07:59:49;;;;;;;10.88;4.90;;;17.30;99.90;;;;;;5050072;28;20063;-68
2022/05/21 08:02:17;;;;;;;13.18;5.18;;;17.50;99.90;;;;;;5050813;28;20041;-69
2022/05/21 08:04:43;;;;;;;13.95;5.25;;;17.80;99.90;;;;;;5049729;28;20482;-71
2022/05/21 08:07:10;;;;;;;13.73;4.25;;;18.00;99.90;;;;;;5050380;28;20055;-70
2022/05/21 08:09:36;;;;;;;16.42;5.30;;;18.00;99.90;;;;;;5050387;28;20051;-70
2022/05/21 08:12:03;;;;;;;9.85;5.35;;;17.90;99.90;;;;;;5049204;28;20418;-70
2022/05/21 08:14:29;;;;;;;12.32;4.72;;;17.70;99.90;;;;;;5038913;28;20190;-70
2022/05/21 08:16:55;;;;;;;9.55;4.20;;;17.60;99.90;;;;;;5041530;28;20045;-70
2022/05/21 08:19:21;;;;;;;9.20;4.32;;;17.60;99.90;;;;;;5050703;28;20103;-70
2022/05/21 08:21:47;;;;;;;11.38;4.47;;;17.50;99.90;;;;;;5042262;28;20053;-70
2022/05/21 08:26:57;;;;;;;14.43;4.82;;;17.50;99.90;;;;;;5048614;28;20110;-71
2022/05/21 08:29:23;;;;;;;21.33;6.13;;;17.80;99.90;;;;;;5049274;28;20410;-71
2022/05/21 08:31:48;;;;;;;14.75;4.65;;;17.90;99.90;;;;;;5049443;28;20487;-73
2022/05/21 08:34:14;;;;;;;16.30;4.70;;;18.10;99.90;;;;;;5048957;28;20045;-72
2022/05/21 08:36:40;;;;;;;20.90;4.97;;;18.00;99.90;;;;;;5049017;28;20049;-73
2022/05/21 08:39:09;;;;;;;11.52;4.53;;;17.90;99.90;;;;;;5049067;28;20045;-73
2022/05/21 08:41:38;;;;;;;17.25;6.47;;;17.70;99.90;;;;;;5047322;28;20055;-73
2022/05/21 08:44:22;;;;;;;13.02;5.65;;;17.50;99.90;;;;;;5048038;28;20051;-73
2022/05/21 08:46:56;;;;;;;11.05;4.85;;;17.60;99.90;;;;;;5039076;28;20045;-73
2022/05/21 08:49:39;;;;;;;21.50;5.20;;;17.80;99.90;;;;;;5044003;28;20044;-73
2022/05/21 08:52:18;;;;;;;21.40;5.38;;;17.80;99.90;;;;;;5047487;28;20398;-74
2022/05/21 08:54:46;;;;;;;20.77;6.03;;;17.90;99.90;;;;;;5039964;28;20049;-73
2022/05/21 08:57:32;;;;;;;14.80;6.80;;;18.00;99.90;;;;;;5043788;28;20068;-73
2022/05/21 09:00:22;;;;;;;12.77;5.97;;;17.90;99.90;;;;;;5045975;28;20136;-73
2022/05/21 09:02:48;;;;;;;12.25;5.07;;;18.00;99.90;;;;;;5040274;28;20037;-72
2022/05/21 09:05:15;;;;;;;13.05;4.90;;;18.20;99.90;;;;;;5041615;28;20123;-73
2022/05/21 09:08:02;;;;;;;8.35;4.72;;;18.40;99.90;;;;;;5048220;28;20045;-72
2022/05/21 09:10:50;;;;;;;20.15;4.97;;;18.50;99.90;;;;;;5039632;28;20135;-73
2022/05/21 09:13:41;;;;;;;22.42;5.47;;;18.50;99.90;;;;;;5044110;28;20410;-72
2022/05/21 09:18:56;;;;;;;18.83;6.55;;;18.00;99.90;;;;;;5041924;28;20123;-73
2022/05/21 09:21:25;;;;;;;14.18;4.80;;;17.80;99.90;;;;;;5045907;28;20149;-73
2022/05/21 09:23:56;;;;;;;22.90;6.22;;;17.80;99.90;;;;;;5048367;28;20048;-73
2022/05/21 09:26:43;;;;;;;12.48;5.47;;;18.00;99.90;;;;;;5049532;28;20053;-72
2022/05/21 09:29:14;;;;;;;17.73;5.80;;;18.30;99.90;;;;;;5028347;28;20927;-73
2022/05/21 09:31:40;;;;;;;9.43;4.38;;;18.50;99.90;;;;;;5028991;28;20045;-72
2022/05/21 09:34:14;;;;;;;25.58;5.65;;;18.70;99.90;;;;;;5029043;28;20103;-72
2022/05/21 09:36:39;;;;;;;9.75;4.25;;;18.70;99.90;;;;;;5058259;28;20064;-73
2022/05/21 09:39:05;;;;;;;21.15;6.25;;;18.80;99.90;;;;;;5051545;28;20041;-73
2022/05/21 09:41:36;;;;;;;14.60;4.97;;;19.10;99.90;;;;;;5047554;28;20045;-73
2022/05/21 09:47:23;;;;;;;21.33;4.75;;;19.00;99.90;;;;;;5045920;28;20494;-73
2022/05/21 09:50:00;;;;;;;11.95;4.43;;;18.80;99.90;;;;;;5029343;28;20084;-72
2022/05/21 09:52:30;;;;;;;16.42;4.00;;;19.00;99.90;;;;;;5033758;28;20064;-72
2022/05/21 09:54:56;;;;;;;16.00;4.75;;;19.20;99.90;;;;;;5040293;28;20412;-72
2022/05/21 09:57:24;;;;;;;13.48;3.80;;;19.50;99.90;;;;;;5042992;28;20047;-71
2022/05/21 10:00:19;;;;;;;;;;;19.70;99.90;;;;;;5046132;28;20090;-72
2022/05/21 10:02:50;;;;;;;6.80;3.70;;;19.80;99.90;;;;;;5030034;28;20373;-71
2022/05/21 10:05:21;;;;;;;13.50;4.45;;;19.90;99.90;;;;;;5047294;28;20048;-72
2022/05/21 10:10:59;;;;;;;8.30;3.97;;;19.50;99.90;;;;;;5046785;28;20059;-71
2022/05/21 10:13:43;;;;;;;8.80;3.17;;;19.60;99.90;;;;;;5047043;28;20045;-70
2022/05/21 10:16:44;;;;;;;10.02;4.13;;;19.80;99.90;;;;;;5047676;28;20122;-70
2022/05/21 10:19:12;;;;;;;6.97;4.22;;;19.90;99.90;;;;;;5047593;28;20110;-70
2022/05/21 10:21:56;;;;;;;10.13;4.35;;;19.90;99.90;;;;;;5048241;28;20654;-70
2022/05/21 10:24:40;;;;;;;15.15;5.15;;;19.60;99.90;;;;;;5027977;28;20032;-69
2022/05/21 10:27:30;;;;;;;8.02;5.15;;;19.50;99.90;;;;;;5047921;28;20045;-70
2022/05/21 10:30:03;;;;;;;14.43;4.75;;;19.30;99.90;;;;;;5048329;28;20049;-69
2022/05/21 10:32:58;;;;;;;16.42;4.45;;;19.10;99.90;;;;;;5047388;28;20048;-69
2022/05/21 10:35:42;;;;;;;16.38;4.85;;;19.20;99.90;;;;;;5046396;28;20049;-69
2022/05/21 10:38:20;;;;;;;9.13;3.95;;;19.40;99.90;;;;;;5047236;28;20062;-70
2022/05/21 10:40:46;;;;;;;;;;;19.60;99.90;;;;;;5046145;28;20048;-69
2022/05/21 10:43:50;;;;;;;18.52;4.10;;;19.60;99.90;;;;;;5021154;28;19974;-69
2022/05/21 10:46:51;;;;;;;10.57;4.10;;;19.60;99.90;;;;;;5038582;28;20044;-69
2022/05/21 10:49:23;;;;;;;10.40;3.72;;;19.50;99.90;;;;;;5042613;28;20128;-69
2022/05/21 10:52:01;;;;;;;11.27;3.58;;;19.70;99.90;;;;;;5046624;28;20132;-69
2022/05/21 10:54:52;;;;;;;17.83;4.65;;;19.80;99.90;;;;;;5033719;28;20049;-69
2022/05/21 10:57:37;;;;;;;15.02;3.30;;;19.90;99.90;;;;;;5036874;28;20049;-69
2022/05/21 11:00:06;;;;;;;7.90;3.55;;;20.00;99.90;;;;;;5046417;28;20067;-69
2022/05/21 11:02:44;;;;;;;8.90;3.90;;;19.80;99.90;;;;;;5027981;28;20049;-69
2022/05/21 11:05:29;;;;;;;11.45;2.90;;;19.70;99.90;;;;;;5031429;28;20041;-69
2022/05/21 11:08:07;;;;;;;8.65;3.75;;;19.40;99.90;;;;;;5046387;28;20048;-69
2022/05/21 11:10:51;;;;;;;8.68;3.65;;;19.40;99.90;;;;;;5047615;28;20066;-69
2022/05/21 11:13:37;;;;;;;15.10;4.97;;;19.40;99.90;;;;;;5046407;28;20041;-70
2022/05/21 11:16:06;;;;;;;16.35;4.53;;;19.60;99.90;;;;;;5044137;28;20122;-69
2022/05/21 11:18:47;;;;;;;10.57;4.53;;;19.90;99.90;;;;;;5048696;28;20060;-69
2022/05/21 11:21:22;;;;;;;15.57;4.20;;;20.00;99.90;;;;;;5045224;28;20045;-69
2022/05/21 11:24:35;;;;;;;12.63;3.92;;;20.00;99.90;;;;;;5050530;28;20495;-69
2022/05/21 11:27:19;;;;;;;8.68;3.25;;;20.30;99.90;;;;;;4968721;28;20059;-69
2022/05/21 11:30:01;;;;;;;9.13;3.13;;;20.20;98.60;;;;;;4970040;28;20046;-71
2022/05/21 11:38:38;;;;;;;14.80;4.22;;;20.40;99.90;;;;;;5048908;28;20429;-69
2022/05/21 11:41:28;;;;;;;8.60;3.70;;;20.20;99.90;;;;;;5039661;28;20061;-69
2022/05/21 11:44:55;;;;;;;10.95;4.07;;;20.30;99.90;;;;;;5046896;28;20045;-68
2022/05/21 11:46:45;;;;;;;17.70;4.80;;;20.20;99.90;;;;;;5050373;28;20513;-68
2022/05/21 11:49:34;;;;;;;10.85;4.15;;;20.00;99.90;;;;;;5049270;28;20371;-68
2022/05/21 11:52:25;;;;;;;9.15;3.53;;;19.80;99.90;;;;;;5050356;28;20076;-68
2022/05/21 11:54:51;;;;;;;9.88;3.85;;;19.60;99.90;;;;;;5046602;28;20667;-68
2022/05/21 11:57:36;;;;;;;9.98;4.72;;;19.40;99.90;;;;;;5049989;28;20041;-69
2022/05/21 12:00:17;;;;;;;12.40;4.28;;;19.30;99.90;;;;;;5048490;28;20045;-68
2022/05/21 12:02:55;;;;;;;13.32;4.45;;;19.40;99.90;;;;;;5040183;28;20099;-68
2022/05/21 12:05:41;;;;;;;13.48;4.38;;;19.50;99.90;;;;;;5038143;28;20100;-68
2022/05/21 12:08:34;;;;;;;16.77;4.50;;;19.50;99.90;;;;;;5044203;28;20518;-70
2022/05/21 12:11:05;;;;;;;13.38;3.85;;;19.80;99.90;;;;;;5048765;28;20824;-70
2022/05/21 12:13:34;;;;;;;10.07;4.72;;;19.90;99.90;;;;;;5044505;28;20090;-70
2022/05/21 12:16:20;;;;;;;17.05;4.35;;;19.80;99.90;;;;;;5046559;28;20040;-70
2022/05/21 12:19:00;;;;;;;14.95;4.85;;;19.90;99.90;;;;;;5044936;28;20079;-70
2022/05/21 12:21:29;;;;;;;11.20;3.75;;;19.70;99.90;;;;;;5050176;28;20482;-69
2022/05/21 12:23:58;;;;;;;16.10;3.63;;;19.60;99.90;;;;;;5040291;28;20050;-69
2022/05/21 12:26:27;;;;;;;10.70;4.28;;;19.80;99.90;;;;;;5050651;28;20077;-69
2022/05/21 12:29:11;;;;;;;8.25;3.88;;;19.90;99.90;;;;;;5049480;28;20107;-70
2022/05/21 12:31:42;;;;;;;19.15;3.95;;;20.00;99.90;;;;;;5044242;28;20143;-70
2022/05/21 12:34:17;;;;;;;15.23;4.40;;;20.30;99.90;;;;;;5031801;28;20102;-70
2022/05/21 12:37:17;;;;;;;13.90;4.15;;;20.30;98.20;;;;;;5056034;28;20106;-70
2022/05/21 12:40:01;;;;;;;17.02;5.03;;;20.10;98.70;;;;;;5034966;28;20060;-70
2022/05/21 12:42:39;;;;;;;15.35;4.30;;;20.10;99.90;;;;;;5048817;28;20063;-70
2022/05/21 12:45:06;;;;;;;10.30;4.13;;;20.00;99.90;;;;;;5037614;28;20436;-70
2022/05/21 12:47:35;;;;;;;23.05;4.47;;;19.70;99.90;;;;;;5048621;28;20136;-70
2022/05/21 12:50:23;;;;;;;12.05;4.38;;;19.60;99.90;;;;;;5048021;28;20049;-70
2022/05/21 12:52:54;;;;;;;11.35;5.15;;;19.60;99.90;;;;;;5012299;28;20774;-70
2022/05/21 12:55:28;;;;;;;12.82;3.92;;;19.90;98.50;;;;;;5028791;28;20049;-69
2022/05/21 12:57:58;;;;;;;16.98;3.90;;;20.00;99.90;;;;;;5029763;28;20087;-70
2022/05/21 13:00:28;;;;;;;15.43;4.22;;;20.30;99.40;;;;;;5044699;28;20051;-70
2022/05/21 13:02:55;;;;;;;13.98;4.60;;;20.40;99.50;;;;;;5048521;28;20032;-70
2022/05/21 13:05:49;;;;;;;12.10;3.95;;;20.40;97.00;;;;;;5030471;28;20091;-70
2022/05/21 13:08:15;;;;;;;13.90;4.00;;;20.30;93.30;;;;;;5030466;28;20510;-70
2022/05/21 13:10:59;;;;;;;8.77;3.28;;;20.50;99.10;;;;;;5050641;28;20044;-70
2022/05/21 13:13:25;;;;;;;10.18;3.40;;;20.60;92.90;;;;;;5048923;28;20049;-70
2022/05/21 13:15:59;;;;;;;12.95;3.65;;;20.80;95.60;;;;;;5048634;28;20064;-70
2022/05/21 13:18:39;;;;;;;12.68;3.35;;;20.70;86.30;;;;;;5050072;28;20047;-70
2022/05/21 13:21:29;;;;;;;10.95;3.83;;;20.80;90.80;;;;;;5049991;28;20099;-71
2022/05/21 13:24:19;;;;;;;13.40;3.13;;;20.70;80.30;;;;;;5048504;28;20414;-70
2022/05/21 13:26:59;;;;;;;13.95;3.50;;;20.50;92.50;;;;;;5049917;28;20041;-70
2022/05/21 13:29:27;;;;;;;9.98;3.38;;;20.40;91.00;;;;;;5049915;28;20060;-70
2022/05/21 13:31:54;;;;;;;17.90;3.30;;;20.30;92.60;;;;;;5049834;28;20051;-70